Portada
METAR-TAF:

METAR-TAF

Aeroports :

NASA Shuttle Landing Facility

Centre espacial John F. Kennedy, Florida, Estats Units d'Amèrica

latitud: 28-37N, longitud: 080-43W, altitud: 3 m

Observació

L'informe es va fer fa 1 hora i 5 minuts, a les 20:56 UTC
Vent 9 kt del Oest/Nord-Oest amb ràfegues de 17 kt
Temperatura 17°C
Humitat 32%
Pressió 1022 hPa
Visibilitat: 16.1 km
Cel clar

METAR: KTTS 282056Z AUTO 30009G17KT 10SM CLR 17/00 A3017 RMK AO2 SLP221 T01740001 57019 VISNO RWY15 CHINO RWY15 $

Hora: 17:01 (22:01 UTC)


TAF: manca

Observacions i pronòstics meteorològics de més de 4000 aeroports (METAR i TAF).

Les estacions disponibles són els punts grocs i vermells al mapa.

Posi el ratolí al punt desitjat per veure el nom de l'estació.

Feu clic per veure les observacions i els pronòstics meteorològics.

Per canviar el mapa: feu clic els botons verds amb una creu de color negre per apropar; al botó verd amb un guió per allunyar la imatge; o en les fletxes verdes per a mapes adjacents.


METAR-TAF: